Time;durP1;ratioP1;P1;durP2;ratioP2;P2;SDS_P1;SDS_P2;PMS_P1;PMS_P2;Temp;Humidity;BMP_temperature;BMP_pressure;BME280_temperature;BME280_humidity;BME280_pressure;Samples;Min_cycle;Max_cycle;Signal;HPM_P1;HPM_P2
2023/12/22 00:01:04;;;;;;;0.68;0.30;;;7.00;99.90;;;;;;5027112;28;20182;-72
2023/12/22 00:03:35;;;;;;;2.15;0.50;;;7.00;99.90;;;;;;5025880;28;20499;-72
2023/12/22 00:06:11;;;;;;;1.55;0.30;;;7.10;99.90;;;;;;5030750;28;20361;-72
2023/12/22 00:08:43;;;;;;;3.38;0.40;;;7.10;99.90;;;;;;5026942;28;20065;-72
2023/12/22 00:11:11;;;;;;;2.33;0.50;;;7.10;99.90;;;;;;5031395;28;20037;-72
2023/12/22 00:13:37;;;;;;;1.48;0.50;;;7.10;99.90;;;;;;5029471;28;20055;-72
2023/12/22 00:16:05;;;;;;;2.45;0.57;;;7.20;99.90;;;;;;5034301;28;20439;-72
2023/12/22 00:18:34;;;;;;;2.45;0.60;;;7.20;99.90;;;;;;5028433;28;20112;-72
2023/12/22 00:21:03;;;;;;;5.90;0.80;;;7.20;99.90;;;;;;5026391;28;23143;-72
2023/12/22 00:23:28;;;;;;;3.30;0.95;;;7.20;99.90;;;;;;5028664;28;20026;-72
2023/12/22 00:25:54;;;;;;;4.78;0.73;;;7.20;99.90;;;;;;5027445;28;20439;-72
2023/12/22 00:28:25;;;;;;;1.73;0.73;;;7.20;99.90;;;;;;5027265;28;20036;-72
2023/12/22 00:30:51;;;;;;;3.97;1.15;;;7.20;99.90;;;;;;5025284;28;20079;-73
2023/12/22 00:33:29;;;;;;;6.10;1.20;;;7.20;99.90;;;;;;5026925;28;20101;-73
2023/12/22 00:35:54;;;;;;;6.68;0.80;;;7.20;99.90;;;;;;5028893;28;20088;-72
2023/12/22 00:38:20;;;;;;;4.50;1.13;;;7.20;99.90;;;;;;5026364;28;20038;-72
2023/12/22 00:40:48;;;;;;;5.25;1.00;;;7.20;99.90;;;;;;5026243;28;20033;-72
2023/12/22 00:43:14;;;;;;;11.82;1.58;;;7.20;99.90;;;;;;5026719;28;20507;-72
2023/12/22 00:45:40;;;;;;;6.10;0.80;;;7.20;99.90;;;;;;5028576;28;20030;-71
2023/12/22 00:48:08;;;;;;;3.70;0.90;;;7.20;99.90;;;;;;5028279;28;20091;-72
2023/12/22 00:50:39;;;;;;;5.82;0.90;;;7.20;99.90;;;;;;5025127;28;20025;-71
2023/12/22 00:53:05;;;;;;;4.30;0.60;;;7.20;99.90;;;;;;5029347;28;20033;-71
2023/12/22 00:55:33;;;;;;;2.45;0.70;;;7.20;99.90;;;;;;5025570;28;20033;-74
2023/12/22 00:57:59;;;;;;;5.55;1.00;;;7.20;99.90;;;;;;5025006;28;20033;-73
2023/12/22 01:00:28;;;;;;;5.35;0.90;;;7.20;99.90;;;;;;5008730;28;20033;-71
2023/12/22 01:02:59;;;;;;;2.95;0.90;;;7.20;99.90;;;;;;5008566;28;20123;-74
2023/12/22 01:05:27;;;;;;;3.25;0.70;;;7.20;99.90;;;;;;5029614;28;20033;-73
2023/12/22 01:07:53;;;;;;;1.20;0.60;;;7.20;99.90;;;;;;5027652;28;20488;-72
2023/12/22 01:10:24;;;;;;;7.03;1.38;;;7.20;99.90;;;;;;5029069;28;20086;-74
2023/12/22 01:12:50;;;;;;;3.10;0.80;;;7.20;99.90;;;;;;5025501;28;20025;-73
2023/12/22 01:15:15;;;;;;;3.58;0.90;;;7.30;99.90;;;;;;5027911;28;20450;-73
2023/12/22 01:17:41;;;;;;;4.18;1.00;;;7.30;99.90;;;;;;5026956;28;20025;-72
2023/12/22 01:20:07;;;;;;;5.38;1.60;;;7.30;99.90;;;;;;5013014;28;20033;-72
2023/12/22 01:22:34;;;;;;;4.22;1.13;;;7.30;99.90;;;;;;5028131;28;20082;-72
2023/12/22 01:25:01;;;;;;;3.17;0.85;;;7.40;99.90;;;;;;5027290;28;20029;-72
2023/12/22 01:27:27;;;;;;;4.95;1.05;;;7.40;99.90;;;;;;5012190;28;20052;-72
2023/12/22 01:29:52;;;;;;;2.08;0.50;;;7.30;99.90;;;;;;5027128;28;20021;-72
2023/12/22 01:32:19;;;;;;;2.35;0.40;;;7.30;99.90;;;;;;5027254;28;20033;-72
2023/12/22 01:34:44;;;;;;;1.70;0.50;;;7.20;99.90;;;;;;5016245;28;20025;-72
2023/12/22 01:37:16;;;;;;;1.55;0.40;;;7.10;99.90;;;;;;5035992;23;20545;-72
2023/12/22 01:39:42;;;;;;;3.25;0.30;;;7.00;99.90;;;;;;5008998;28;20080;-72
2023/12/22 01:42:10;;;;;;;1.85;0.50;;;6.80;99.90;;;;;;5005194;28;20385;-73
2023/12/22 01:44:36;;;;;;;1.75;0.40;;;6.80;99.90;;;;;;5007706;28;20022;-73
2023/12/22 01:47:01;;;;;;;0.85;0.32;;;6.70;99.90;;;;;;5012774;28;20276;-71
2023/12/22 01:49:30;;;;;;;0.65;0.20;;;6.60;99.90;;;;;;5006767;28;20101;-71
2023/12/22 01:51:56;;;;;;;1.23;0.22;;;6.50;99.90;;;;;;5004391;28;20575;-71
2023/12/22 01:54:25;;;;;;;0.70;0.35;;;6.50;99.90;;;;;;5003628;28;20060;-72
2023/12/22 01:56:50;;;;;;;1.45;0.20;;;6.40;99.90;;;;;;5003070;28;20026;-71
2023/12/22 01:59:16;;;;;;;1.30;0.20;;;6.30;99.90;;;;;;5005685;28;20118;-72
2023/12/22 02:01:45;;;;;;;0.10;0.10;;;6.20;99.90;;;;;;5005356;28;20100;-71
2023/12/22 02:04:15;;;;;;;1.00;0.28;;;6.20;99.90;;;;;;5014817;28;20126;-72
2023/12/22 02:06:42;;;;;;;2.17;0.30;;;6.20;99.90;;;;;;5010366;28;20159;-72
2023/12/22 02:09:08;;;;;;;1.65;0.20;;;6.20;99.90;;;;;;5010200;28;20029;-72
2023/12/22 02:11:33;;;;;;;2.40;0.20;;;6.20;99.90;;;;;;5013903;28;20018;-71
2023/12/22 02:14:02;;;;;;;2.00;0.20;;;6.20;99.90;;;;;;5011145;28;20060;-72
2023/12/22 02:17:29;;;;;;;1.17;0.43;;;6.30;99.90;;;;;;5014590;28;20026;-72
2023/12/22 02:19:56;;;;;;;1.05;0.40;;;6.30;99.90;;;;;;4959973;28;20039;-72
2023/12/22 02:22:22;;;;;;;1.90;0.40;;;6.30;99.90;;;;;;4968988;28;20035;-73
2023/12/22 02:24:50;;;;;;;0.43;0.20;;;6.30;99.90;;;;;;4998246;28;20120;-72
2023/12/22 02:27:58;;;;;;;5.93;0.50;;;6.30;99.90;;;;;;5011589;28;20037;-72
2023/12/22 02:30:41;;;;;;;3.63;0.30;;;6.30;99.90;;;;;;4949761;28;20106;-72
2023/12/22 02:33:08;;;;;;;1.10;0.40;;;6.30;99.90;;;;;;5009926;28;20040;-72
2023/12/22 02:35:36;;;;;;;2.22;0.57;;;6.30;99.90;;;;;;5012451;28;20029;-72
2023/12/22 02:38:04;;;;;;;3.22;0.60;;;6.30;99.90;;;;;;5010681;28;20026;-72
2023/12/22 02:40:30;;;;;;;2.55;0.60;;;6.30;99.90;;;;;;5010858;28;20026;-72
2023/12/22 02:42:56;;;;;;;4.10;0.60;;;6.40;99.90;;;;;;5009839;28;20080;-72
2023/12/22 02:45:25;;;;;;;5.05;0.85;;;6.40;99.90;;;;;;5006250;28;20030;-72
2023/12/22 02:47:53;;;;;;;2.78;0.70;;;6.40;99.90;;;;;;5010396;28;20461;-71
2023/12/22 02:50:22;;;;;;;4.53;0.80;;;6.40;99.90;;;;;;5011473;28;20033;-73
2023/12/22 02:52:47;;;;;;;5.28;0.60;;;6.40;99.90;;;;;;5006894;28;20030;-73
2023/12/22 02:55:16;;;;;;;3.38;0.70;;;6.40;99.90;;;;;;5011153;28;20093;-73
2023/12/22 02:57:41;;;;;;;6.50;0.70;;;6.50;99.90;;;;;;5013633;28;20072;-73
2023/12/22 03:00:07;;;;;;;5.18;0.70;;;6.50;99.90;;;;;;5008674;28;20061;-73
2023/12/22 03:02:33;;;;;;;5.05;0.70;;;6.50;99.90;;;;;;5010483;28;20076;-73
2023/12/22 03:04:59;;;;;;;4.50;1.08;;;6.50;99.90;;;;;;5009963;28;20449;-73
2023/12/22 03:07:24;;;;;;;4.70;1.20;;;6.50;99.90;;;;;;5013129;28;20038;-73
2023/12/22 03:09:50;;;;;;;9.07;1.23;;;6.60;99.90;;;;;;5006265;28;20477;-73
2023/12/22 03:12:15;;;;;;;6.18;1.10;;;6.60;99.90;;;;;;5006614;28;20072;-73
2023/12/22 03:14:44;;;;;;;2.42;0.75;;;6.60;99.90;;;;;;5005591;28;20025;-74
2023/12/22 03:17:12;;;;;;;2.80;0.50;;;6.60;99.90;;;;;;5011041;28;20388;-71
2023/12/22 03:19:41;;;;;;;2.53;0.75;;;6.60;99.90;;;;;;5017166;28;20388;-72
2023/12/22 03:22:07;;;;;;;3.15;0.50;;;6.60;99.90;;;;;;5006493;28;20249;-72
2023/12/22 03:24:37;;;;;;;2.25;0.57;;;6.60;99.90;;;;;;5009616;28;20499;-72
2023/12/22 03:27:02;;;;;;;3.05;0.50;;;6.60;99.90;;;;;;5008763;28;20104;-72
2023/12/22 03:29:31;;;;;;;2.63;0.30;;;6.60;99.90;;;;;;5010564;28;20108;-72
2023/12/22 03:31:59;;;;;;;1.52;0.50;;;6.50;99.90;;;;;;5004770;28;20037;-73
2023/12/22 03:34:25;;;;;;;4.20;0.50;;;6.50;99.90;;;;;;5009940;28;20026;-73
2023/12/22 03:36:50;;;;;;;3.55;0.40;;;6.50;99.90;;;;;;5007877;28;20041;-72
2023/12/22 03:39:16;;;;;;;5.25;0.60;;;6.50;99.90;;;;;;5007279;28;20176;-74
2023/12/22 03:41:41;;;;;;;4.18;0.55;;;6.50;99.90;;;;;;5005148;28;20017;-73
2023/12/22 03:44:10;;;;;;;2.85;0.57;;;6.50;99.90;;;;;;5005099;28;20526;-73
2023/12/22 03:46:35;;;;;;;2.22;0.28;;;6.50;99.90;;;;;;5008540;28;20119;-73
2023/12/22 03:49:01;;;;;;;2.47;0.40;;;6.50;99.90;;;;;;5007385;28;20073;-73
2023/12/22 03:51:29;;;;;;;3.13;0.68;;;6.50;99.90;;;;;;5003661;28;20041;-73
2023/12/22 03:53:55;;;;;;;2.70;0.40;;;6.50;99.90;;;;;;5007623;28;20033;-73
2023/12/22 03:56:20;;;;;;;1.63;0.30;;;6.50;99.90;;;;;;5008971;28;20034;-73
2023/12/22 03:58:46;;;;;;;1.67;0.45;;;6.50;99.90;;;;;;5006959;28;20022;-73
2023/12/22 04:01:14;;;;;;;1.65;0.50;;;6.50;99.90;;;;;;5006953;28;20061;-73
2023/12/22 04:03:40;;;;;;;1.55;0.60;;;6.50;99.90;;;;;;5008734;28;20531;-71
2023/12/22 04:06:14;;;;;;;1.10;0.32;;;6.50;99.90;;;;;;5005550;28;20062;-71
2023/12/22 04:08:40;;;;;;;2.72;0.60;;;6.50;99.90;;;;;;5008500;28;20508;-72
2023/12/22 04:11:05;;;;;;;3.42;0.85;;;6.50;99.90;;;;;;5007194;28;20021;-72
2023/12/22 04:13:34;;;;;;;4.53;1.00;;;6.50;99.90;;;;;;5005917;28;20030;-72
2023/12/22 04:15:59;;;;;;;2.35;0.45;;;6.50;99.90;;;;;;5003004;28;20029;-73
2023/12/22 04:18:28;;;;;;;3.90;0.80;;;6.50;99.90;;;;;;5011237;28;20030;-72
2023/12/22 04:20:55;;;;;;;2.08;0.70;;;6.50;99.90;;;;;;5010675;28;20029;-71
2023/12/22 04:23:20;;;;;;;9.43;0.98;;;6.50;99.90;;;;;;5005249;28;20118;-71
2023/12/22 04:25:46;;;;;;;3.80;0.63;;;6.50;99.90;;;;;;5005448;28;20117;-74
2023/12/22 04:28:11;;;;;;;3.17;1.05;;;6.50;99.90;;;;;;5003724;28;20038;-72
2023/12/22 04:30:37;;;;;;;4.18;1.08;;;6.60;99.90;;;;;;5008647;28;20030;-72
2023/12/22 04:33:03;;;;;;;4.05;0.73;;;6.60;99.90;;;;;;5010181;28;20029;-73
2023/12/22 04:35:28;;;;;;;4.38;1.15;;;6.60;99.90;;;;;;5008654;28;20101;-72
2023/12/22 04:37:55;;;;;;;6.63;1.50;;;6.60;99.90;;;;;;5008465;28;20077;-72
2023/12/22 04:40:21;;;;;;;3.80;0.75;;;6.60;99.90;;;;;;5006830;28;20056;-72
2023/12/22 04:42:52;;;;;;;6.45;1.25;;;6.60;99.90;;;;;;5006136;28;20030;-72
2023/12/22 04:45:21;;;;;;;6.85;1.30;;;6.70;99.90;;;;;;5010344;28;20022;-72
2023/12/22 04:47:46;;;;;;;3.30;0.85;;;6.70;99.90;;;;;;5010180;28;20042;-71
2023/12/22 04:50:12;;;;;;;4.97;0.55;;;6.70;99.90;;;;;;5010681;28;20036;-71
2023/12/22 04:52:37;;;;;;;3.42;0.88;;;6.70;99.90;;;;;;5004990;28;20037;-72
2023/12/22 04:55:03;;;;;;;8.48;0.80;;;6.70;99.90;;;;;;5005424;28;20018;-72
2023/12/22 04:57:29;;;;;;;4.93;1.00;;;6.70;99.90;;;;;;5006418;28;20511;-73
2023/12/22 04:59:58;;;;;;;4.40;0.80;;;6.70;99.90;;;;;;5008304;28;20393;-73
2023/12/22 05:02:26;;;;;;;4.35;1.40;;;6.70;99.90;;;;;;5004526;28;20041;-72
2023/12/22 05:04:51;;;;;;;8.00;1.15;;;6.60;99.90;;;;;;5007215;28;20018;-72
2023/12/22 05:07:17;;;;;;;3.47;0.80;;;6.70;99.90;;;;;;5008490;28;20061;-72
2023/12/22 05:09:52;;;;;;;4.07;0.90;;;6.60;99.90;;;;;;5006383;28;20101;-70
2023/12/22 05:12:18;;;;;;;7.72;0.90;;;6.70;99.90;;;;;;5006238;28;20120;-71
2023/12/22 05:14:44;;;;;;;5.03;1.35;;;6.70;99.90;;;;;;5006096;28;20465;-71
2023/12/22 05:17:13;;;;;;;4.35;1.02;;;6.60;99.90;;;;;;5007782;28;20042;-71
2023/12/22 05:19:38;;;;;;;4.20;0.77;;;6.60;99.90;;;;;;5006885;28;20013;-72
2023/12/22 05:22:04;;;;;;;2.95;0.80;;;6.60;99.90;;;;;;5006393;28;20033;-72
2023/12/22 05:24:33;;;;;;;5.72;0.93;;;6.60;99.90;;;;;;5008261;28;20152;-72
2023/12/22 05:27:10;;;;;;;8.52;1.27;;;6.60;99.90;;;;;;5002086;28;20476;-72
2023/12/22 05:29:45;;;;;;;5.57;1.17;;;6.70;99.90;;;;;;5004545;28;20484;-71
2023/12/22 05:32:11;;;;;;;3.35;1.23;;;6.60;99.90;;;;;;5002952;28;20060;-71
2023/12/22 05:34:36;;;;;;;5.63;1.38;;;6.70;99.90;;;;;;5008261;28;20061;-71
2023/12/22 05:37:02;;;;;;;8.57;2.05;;;6.70;99.90;;;;;;5012180;28;20036;-71
2023/12/22 05:39:31;;;;;;;9.20;2.42;;;6.70;99.90;;;;;;5011027;28;20037;-71
2023/12/22 05:41:57;;;;;;;8.30;1.83;;;6.80;99.90;;;;;;5009796;28;20048;-72
2023/12/22 05:44:30;;;;;;;8.35;1.70;;;6.80;99.90;;;;;;5013333;28;20018;-71
2023/12/22 05:46:57;;;;;;;11.85;2.20;;;6.80;99.90;;;;;;5013092;28;20018;-71
2023/12/22 05:49:25;;;;;;;6.13;1.38;;;6.80;99.90;;;;;;5008475;28;20472;-72
2023/12/22 05:52:00;;;;;;;8.27;2.20;;;6.80;99.90;;;;;;5012789;28;20354;-72
2023/12/22 05:54:26;;;;;;;7.05;1.40;;;6.90;99.90;;;;;;5004494;28;20025;-72
2023/12/22 05:56:54;;;;;;;5.72;1.38;;;6.90;99.90;;;;;;5008103;28;20021;-72
2023/12/22 05:59:20;;;;;;;7.82;2.00;;;6.90;99.90;;;;;;5005100;28;20080;-72
2023/12/22 06:01:45;;;;;;;11.18;1.65;;;7.00;99.90;;;;;;5008312;28;20112;-73
2023/12/22 06:04:14;;;;;;;9.90;1.70;;;7.00;99.90;;;;;;5010726;28;20511;-71
2023/12/22 06:06:45;;;;;;;5.80;1.40;;;6.90;99.90;;;;;;5012406;28;20037;-72
2023/12/22 06:09:14;;;;;;;11.98;1.60;;;6.90;99.90;;;;;;5010004;28;20022;-72
2023/12/22 06:11:42;;;;;;;4.90;1.00;;;6.90;99.90;;;;;;5015291;28;20026;-73
2023/12/22 06:14:14;;;;;;;6.13;1.13;;;7.00;99.90;;;;;;5006540;28;20433;-72
2023/12/22 06:16:40;;;;;;;8.18;1.83;;;7.00;99.90;;;;;;5010185;28;20046;-72
2023/12/22 06:19:06;;;;;;;6.72;1.38;;;7.00;99.90;;;;;;5011828;28;20143;-73
2023/12/22 06:21:32;;;;;;;5.28;1.30;;;7.10;99.90;;;;;;5006664;28;20034;-72
2023/12/22 06:23:57;;;;;;;8.98;1.80;;;7.10;99.90;;;;;;5008754;28;20144;-72
2023/12/22 06:26:23;;;;;;;8.55;1.33;;;7.10;99.90;;;;;;5014879;28;20030;-72
2023/12/22 06:28:49;;;;;;;8.68;1.25;;;7.00;99.90;;;;;;5002471;28;20472;-77
2023/12/22 06:31:27;;;;;;;11.93;1.85;;;7.00;99.90;;;;;;5001614;28;20022;-75
2023/12/22 06:33:53;;;;;;;9.65;1.70;;;7.10;99.90;;;;;;5003085;28;20314;-72
2023/12/22 06:36:25;;;;;;;6.90;1.58;;;7.00;99.90;;;;;;5012550;28;20023;-72
2023/12/22 06:38:54;;;;;;;10.52;2.05;;;6.90;99.90;;;;;;5008297;28;20623;-74
2023/12/22 06:41:20;;;;;;;5.35;1.42;;;6.90;99.90;;;;;;5009234;28;20476;-72
2023/12/22 06:43:45;;;;;;;8.13;1.63;;;6.80;99.90;;;;;;5010461;28;20054;-72
2023/12/22 06:46:27;;;;;;;7.03;0.95;;;6.70;99.90;;;;;;5014207;28;20390;-73
2023/12/22 06:48:57;;;;;;;8.63;1.38;;;6.70;99.90;;;;;;5004774;28;20551;-72
2023/12/22 06:51:23;;;;;;;7.63;1.85;;;6.60;99.90;;;;;;5012768;28;20465;-71
2023/12/22 06:53:50;;;;;;;5.65;1.88;;;6.60;99.90;;;;;;5005865;28;20468;-75
2023/12/22 06:56:26;;;;;;;3.35;1.10;;;6.60;99.90;;;;;;5010791;28;20121;-76
2023/12/22 06:58:54;;;;;;;6.95;1.02;;;6.50;99.90;;;;;;5007756;28;20109;-75
2023/12/22 07:01:33;;;;;;;10.30;1.75;;;6.50;99.90;;;;;;5007153;28;20052;-75
2023/12/22 07:04:01;;;;;;;5.75;1.38;;;6.50;99.90;;;;;;5005318;28;20033;-75
2023/12/22 07:06:29;;;;;;;9.65;2.03;;;6.50;99.90;;;;;;5006073;28;20040;-75
2023/12/22 07:09:20;;;;;;;11.57;1.45;;;6.60;99.90;;;;;;5008879;28;20021;-75
2023/12/22 07:11:51;;;;;;;10.50;1.73;;;6.60;99.90;;;;;;5004082;28;20041;-76
2023/12/22 07:14:17;;;;;;;6.95;1.20;;;6.60;99.90;;;;;;5008330;28;20030;-74
2023/12/22 07:16:45;;;;;;;9.98;1.85;;;6.60;99.90;;;;;;5006649;28;20447;-75
2023/12/22 07:19:14;;;;;;;10.35;1.52;;;6.60;99.90;;;;;;5001851;28;20057;-75
2023/12/22 07:21:40;;;;;;;9.20;1.23;;;6.60;99.90;;;;;;4998656;28;20370;-74
2023/12/22 07:24:06;;;;;;;10.65;1.85;;;6.70;99.90;;;;;;5007377;28;20036;-76
2023/12/22 07:26:32;;;;;;;8.13;2.20;;;6.70;99.90;;;;;;5007978;28;20484;-75
2023/12/22 07:29:01;;;;;;;7.72;1.77;;;6.70;99.90;;;;;;5008395;28;20052;-76
2023/12/22 07:31:26;;;;;;;7.07;1.67;;;6.70;99.90;;;;;;5009338;28;20393;-75
2023/12/22 07:33:52;;;;;;;6.82;1.52;;;6.70;99.90;;;;;;5008499;28;20022;-75
2023/12/22 07:36:18;;;;;;;7.80;1.40;;;6.70;99.90;;;;;;5007925;28;20083;-76
2023/12/22 07:38:54;;;;;;;8.32;1.30;;;6.70;99.90;;;;;;5033558;22;20487;-76
2023/12/22 07:41:20;;;;;;;6.45;1.63;;;6.70;99.90;;;;;;4995001;28;20029;-76
2023/12/22 07:43:45;;;;;;;5.65;1.42;;;6.80;99.90;;;;;;5012510;28;20022;-75
2023/12/22 07:46:20;;;;;;;11.10;1.85;;;6.80;99.90;;;;;;5012991;28;20029;-76
2023/12/22 07:48:46;;;;;;;8.10;1.17;;;6.80;99.90;;;;;;5012533;28;20018;-76
2023/12/22 07:51:15;;;;;;;12.13;2.25;;;6.80;99.90;;;;;;5010648;28;20073;-75
2023/12/22 07:53:46;;;;;;;6.25;1.55;;;6.80;99.90;;;;;;5009983;28;20546;-76
2023/12/22 07:56:12;;;;;;;8.18;1.75;;;6.80;99.90;;;;;;5010166;28;20468;-76
2023/12/22 07:58:38;;;;;;;13.75;2.58;;;6.80;99.90;;;;;;5006973;28;20033;-75
2023/12/22 08:01:05;;;;;;;7.30;2.03;;;6.80;99.90;;;;;;5008970;28;20034;-77
2023/12/22 08:03:31;;;;;;;7.28;1.70;;;6.80;99.90;;;;;;5008177;28;20073;-76
2023/12/22 08:05:57;;;;;;;11.48;2.65;;;6.80;99.90;;;;;;5011195;28;20030;-76
2023/12/22 08:08:25;;;;;;;8.15;2.22;;;6.80;99.90;;;;;;5007005;28;20033;-76
2023/12/22 08:10:51;;;;;;;9.40;1.30;;;6.80;99.90;;;;;;5009508;28;20033;-76
2023/12/22 08:13:19;;;;;;;11.07;1.92;;;6.80;99.90;;;;;;5010482;28;20022;-76
2023/12/22 08:15:45;;;;;;;11.00;2.10;;;6.80;99.90;;;;;;5007256;28;20592;-75
2023/12/22 08:18:14;;;;;;;9.68;2.25;;;6.80;99.90;;;;;;5005916;28;20112;-76
2023/12/22 08:20:42;;;;;;;9.52;2.25;;;6.80;99.90;;;;;;5010570;28;20021;-76
2023/12/22 08:23:08;;;;;;;7.38;1.70;;;6.80;99.90;;;;;;5008173;28;20021;-75
2023/12/22 08:25:34;;;;;;;9.20;2.22;;;6.80;99.90;;;;;;5009661;28;20168;-76
2023/12/22 08:28:05;;;;;;;8.50;2.10;;;6.80;99.90;;;;;;5010295;28;20030;-76
2023/12/22 08:30:34;;;;;;;11.50;2.00;;;6.80;99.90;;;;;;4997729;28;20022;-75
2023/12/22 08:33:03;;;;;;;10.88;1.60;;;6.80;99.90;;;;;;5005469;28;20022;-76
2023/12/22 08:35:31;;;;;;;5.15;1.80;;;6.80;99.90;;;;;;5009126;28;20026;-76
2023/12/22 08:38:07;;;;;;;11.98;2.35;;;6.80;99.90;;;;;;5010994;28;20029;-76
2023/12/22 08:40:32;;;;;;;7.80;1.63;;;6.80;99.90;;;;;;5010645;28;20022;-76
2023/12/22 08:43:06;;;;;;;8.73;1.80;;;6.80;99.90;;;;;;5011307;28;20029;-76
2023/12/22 08:45:34;;;;;;;12.18;2.10;;;6.80;99.90;;;;;;5008827;28;20053;-76
2023/12/22 08:48:07;;;;;;;6.93;1.65;;;6.90;99.90;;;;;;5009973;28;20030;-75
2023/12/22 08:50:39;;;;;;;7.38;1.98;;;6.90;99.90;;;;;;5007224;28;20014;-75
2023/12/22 08:53:04;;;;;;;13.45;1.83;;;6.90;99.90;;;;;;5008052;28;20030;-76
2023/12/22 08:55:33;;;;;;;6.47;1.83;;;6.90;99.90;;;;;;5007471;28;20033;-75
2023/12/22 08:57:59;;;;;;;4.85;1.50;;;6.90;99.90;;;;;;5010639;28;20508;-75
2023/12/22 09:00:27;;;;;;;6.97;1.90;;;6.90;99.90;;;;;;5003325;28;20022;-75
2023/12/22 09:02:53;;;;;;;6.25;1.90;;;6.90;99.90;;;;;;5007914;28;20033;-75
2023/12/22 09:05:20;;;;;;;7.93;2.08;;;6.90;99.90;;;;;;5009515;28;20423;-76
2023/12/22 09:07:46;;;;;;;7.15;1.42;;;6.90;99.90;;;;;;5008171;28;20018;-76
2023/12/22 09:10:12;;;;;;;8.88;1.67;;;6.90;99.90;;;;;;5007489;28;20093;-76
2023/12/22 09:12:43;;;;;;;7.07;1.60;;;6.80;99.90;;;;;;5010718;28;20117;-75
2023/12/22 09:15:09;;;;;;;4.97;1.95;;;6.80;99.90;;;;;;5008603;28;20062;-75
2023/12/22 09:17:34;;;;;;;5.35;1.23;;;6.80;99.90;;;;;;5011312;28;20440;-75
2023/12/22 09:20:00;;;;;;;9.68;1.85;;;6.80;99.90;;;;;;5014323;28;20030;-76
2023/12/22 09:22:26;;;;;;;9.32;1.70;;;6.80;99.90;;;;;;5011491;28;20029;-75
2023/12/22 09:24:51;;;;;;;12.73;2.45;;;6.80;99.90;;;;;;5007731;28;20128;-76
2023/12/22 09:27:17;;;;;;;10.13;2.35;;;6.80;99.90;;;;;;5014170;28;20068;-74
2023/12/22 09:29:42;;;;;;;8.32;1.52;;;6.80;99.90;;;;;;5014191;28;20022;-75
2023/12/22 09:32:08;;;;;;;11.70;2.22;;;6.80;99.90;;;;;;5013075;28;20014;-75
2023/12/22 09:34:37;;;;;;;8.00;1.67;;;6.80;99.90;;;;;;5010769;28;20023;-77
2023/12/22 09:37:05;;;;;;;6.07;1.70;;;6.80;99.90;;;;;;5010955;28;20430;-75
2023/12/22 09:39:31;;;;;;;7.28;1.95;;;6.80;99.90;;;;;;5014055;28;20156;-75
2023/12/22 09:41:56;;;;;;;7.22;1.75;;;6.80;99.90;;;;;;5010060;28;20113;-74
2023/12/22 09:44:31;;;;;;;9.27;1.88;;;6.80;99.90;;;;;;5012567;28;20025;-75
2023/12/22 09:46:58;;;;;;;6.05;2.08;;;6.80;99.90;;;;;;5012738;28;20108;-75
2023/12/22 09:49:27;;;;;;;7.68;1.70;;;6.80;99.90;;;;;;5012079;28;20091;-77
2023/12/22 09:51:54;;;;;;;10.55;1.40;;;6.80;99.90;;;;;;5007122;28;20484;-76
2023/12/22 09:54:19;;;;;;;7.18;1.70;;;6.70;99.90;;;;;;5011884;28;20010;-75
2023/12/22 09:56:47;;;;;;;7.72;1.73;;;6.70;99.90;;;;;;5013182;28;20018;-76
2023/12/22 09:59:17;;;;;;;8.48;2.30;;;6.70;99.90;;;;;;5010210;28;20429;-74
2023/12/22 10:01:48;;;;;;;11.02;2.25;;;6.80;99.90;;;;;;5009737;28;20034;-73
2023/12/22 10:04:14;;;;;;;10.93;1.70;;;6.80;99.90;;;;;;5013090;28;20392;-74
2023/12/22 10:06:41;;;;;;;5.93;1.73;;;6.80;99.90;;;;;;5013825;28;20472;-76
2023/12/22 10:09:08;;;;;;;9.43;1.88;;;6.80;99.90;;;;;;5011919;28;20022;-74
2023/12/22 10:11:44;;;;;;;6.25;1.92;;;6.80;99.90;;;;;;5013381;28;20060;-75
2023/12/22 10:14:10;;;;;;;5.80;1.30;;;6.80;99.90;;;;;;5010190;28;20025;-75
2023/12/22 10:16:40;;;;;;;7.47;1.88;;;6.80;99.90;;;;;;5009793;28;20110;-75
2023/12/22 10:19:09;;;;;;;4.07;1.63;;;6.90;99.90;;;;;;5012397;28;20026;-74
2023/12/22 10:21:37;;;;;;;7.47;2.00;;;6.90;99.90;;;;;;5009571;28;20026;-75
2023/12/22 10:24:03;;;;;;;7.65;1.63;;;6.90;99.90;;;;;;5008792;28;20420;-75
2023/12/22 10:26:29;;;;;;;9.57;2.17;;;6.90;99.90;;;;;;5009602;28;20028;-74
2023/12/22 10:28:54;;;;;;;7.75;1.85;;;6.90;99.90;;;;;;5012278;28;20029;-74
2023/12/22 10:31:20;;;;;;;6.47;1.70;;;6.90;99.90;;;;;;5003125;28;20469;-74
2023/12/22 10:33:48;;;;;;;5.25;1.40;;;6.90;99.90;;;;;;5013364;28;20080;-73
2023/12/22 10:36:14;;;;;;;9.20;1.73;;;6.90;99.90;;;;;;5008887;28;20026;-76
2023/12/22 10:38:44;;;;;;;9.20;1.88;;;6.90;99.90;;;;;;5013857;28;20030;-74
2023/12/22 10:41:13;;;;;;;8.38;2.95;;;6.90;99.90;;;;;;5013806;28;20022;-74
2023/12/22 10:43:39;;;;;;;14.70;2.10;;;6.90;99.90;;;;;;5008075;28;20046;-74
2023/12/22 10:46:07;;;;;;;9.07;2.22;;;6.90;99.90;;;;;;5014450;28;20018;-75
2023/12/22 10:48:36;;;;;;;12.20;2.58;;;6.90;99.90;;;;;;5013841;28;20396;-75
2023/12/22 10:51:10;;;;;;;9.75;1.75;;;7.00;99.90;;;;;;5013531;28;20014;-74
2023/12/22 10:53:42;;;;;;;7.20;1.52;;;6.90;99.90;;;;;;5013880;28;20018;-76
2023/12/22 10:56:08;;;;;;;11.50;2.22;;;6.90;99.90;;;;;;5000227;28;20026;-77
2023/12/22 10:58:35;;;;;;;7.95;1.77;;;6.90;99.90;;;;;;4999779;28;20037;-75
2023/12/22 11:01:05;;;;;;;8.98;1.60;;;7.00;99.90;;;;;;5011549;28;20481;-76
2023/12/22 11:03:39;;;;;;;5.05;1.75;;;6.90;99.90;;;;;;5001128;28;20038;-76
2023/12/22 11:06:15;;;;;;;7.97;1.80;;;7.00;99.90;;;;;;4994036;28;20026;-75
2023/12/22 11:08:43;;;;;;;9.45;1.95;;;7.00;99.90;;;;;;5000007;28;20133;-75
2023/12/22 11:11:20;;;;;;;7.47;1.88;;;7.00;99.90;;;;;;5013509;28;20022;-76
2023/12/22 11:13:50;;;;;;;8.25;1.90;;;7.00;99.90;;;;;;5013458;28;20488;-75
2023/12/22 11:16:18;;;;;;;8.85;1.85;;;7.00;99.90;;;;;;5010166;28;20110;-77
2023/12/22 11:18:44;;;;;;;11.70;2.03;;;7.00;99.90;;;;;;5010490;28;20048;-75
2023/12/22 11:21:12;;;;;;;12.20;3.03;;;7.00;99.90;;;;;;5013725;28;20443;-77
2023/12/22 11:23:38;;;;;;;11.02;2.60;;;7.00;99.90;;;;;;5004173;28;20026;-75
2023/12/22 11:26:05;;;;;;;9.63;2.20;;;7.10;99.90;;;;;;5013318;28;20014;-75
2023/12/22 11:28:35;;;;;;;6.85;1.70;;;7.00;99.90;;;;;;5013135;28;20361;-76
2023/12/22 11:31:09;;;;;;;10.02;2.85;;;7.00;99.90;;;;;;5013561;28;20075;-76
2023/12/22 11:33:42;;;;;;;;;;;7.10;99.90;;;;;;5007565;28;20507;-76
2023/12/22 11:36:12;;;;;;;12.18;2.78;;;7.00;99.90;;;;;;5003731;28;19909;-75
2023/12/22 11:38:39;;;;;;;12.07;2.03;;;7.00;99.90;;;;;;5012745;28;20030;-75
2023/12/22 11:41:09;;;;;;;14.70;2.13;;;7.00;99.90;;;;;;5012911;28;20056;-76
2023/12/22 11:43:35;;;;;;;11.27;2.50;;;7.10;99.90;;;;;;5012887;28;20465;-76
2023/12/22 11:46:04;;;;;;;10.27;2.10;;;7.00;99.90;;;;;;5012514;28;20033;-75
2023/12/22 11:48:49;;;;;;;7.45;2.40;;;7.10;99.90;;;;;;5008160;28;20111;-76
2023/12/22 11:51:16;;;;;;;6.90;1.95;;;7.00;99.90;;;;;;5012312;28;20021;-76
2023/12/22 11:53:42;;;;;;;4.65;1.55;;;7.00;99.90;;;;;;5012735;28;20026;-76
2023/12/22 11:56:09;;;;;;;6.38;1.70;;;7.00;99.90;;;;;;5011579;28;20098;-76
2023/12/22 11:59:04;;;;;;;9.38;1.70;;;7.00;99.90;;;;;;4999025;28;20030;-75
2023/12/22 12:01:31;;;;;;;8.40;1.40;;;7.00;99.90;;;;;;4950731;28;20050;-76
2023/12/22 12:03:59;;;;;;;8.85;2.20;;;7.00;99.90;;;;;;4962266;28;20025;-73
2023/12/22 12:06:25;;;;;;;6.57;1.33;;;7.00;99.90;;;;;;4968760;28;20031;-76
2023/12/22 12:08:54;;;;;;;7.72;1.35;;;7.00;99.90;;;;;;4970208;28;20054;-75
2023/12/22 12:11:21;;;;;;;3.80;1.25;;;7.00;99.90;;;;;;4973602;28;20095;-75
2023/12/22 12:13:50;;;;;;;2.70;1.10;;;7.00;99.90;;;;;;4968688;28;20113;-76
2023/12/22 12:16:23;;;;;;;5.15;1.00;;;7.00;99.90;;;;;;4971030;28;20102;-75
2023/12/22 12:18:52;;;;;;;6.95;1.10;;;7.00;99.90;;;;;;4973407;28;20018;-76
2023/12/22 12:21:22;;;;;;;3.35;0.98;;;7.00;99.90;;;;;;4970116;28;20023;-76
2023/12/22 12:23:51;;;;;;;2.83;1.00;;;7.00;99.90;;;;;;4970249;28;20054;-75
2023/12/22 12:26:17;;;;;;;4.78;1.50;;;7.10;99.90;;;;;;4970305;28;20054;-74
2023/12/22 12:28:47;;;;;;;4.88;1.17;;;7.10;99.90;;;;;;4961630;28;20023;-75
2023/12/22 12:31:15;;;;;;;3.55;1.35;;;7.00;99.90;;;;;;4973227;28;20429;-76
2023/12/22 12:33:42;;;;;;;2.35;0.90;;;7.10;99.90;;;;;;4970086;28;20434;-75
2023/12/22 12:36:15;;;;;;;4.63;0.88;;;7.00;99.90;;;;;;4972932;28;20425;-76
2023/12/22 12:38:54;;;;;;;3.05;1.00;;;7.00;99.90;;;;;;4968583;28;20544;-75
2023/12/22 12:41:31;;;;;;;2.72;0.73;;;7.10;99.90;;;;;;4964371;28;20035;-74
2023/12/22 12:43:58;;;;;;;4.22;1.00;;;7.10;99.90;;;;;;4969788;28;20109;-76
2023/12/22 12:46:37;;;;;;;2.33;0.60;;;7.10;99.90;;;;;;4968108;28;20031;-76
2023/12/22 12:49:12;;;;;;;2.25;0.57;;;7.10;99.90;;;;;;4972116;28;20038;-75
2023/12/22 12:51:57;;;;;;;2.80;0.80;;;7.10;99.90;;;;;;4973344;28;20118;-76
2023/12/22 12:54:26;;;;;;;3.70;0.90;;;7.20;99.90;;;;;;4965184;28;20045;-75
2023/12/22 12:56:51;;;;;;;2.08;0.60;;;7.20;99.90;;;;;;4972624;28;20109;-76
2023/12/22 12:59:18;;;;;;;3.67;0.95;;;7.20;99.90;;;;;;4966973;28;20058;-76
2023/12/22 13:01:50;;;;;;;2.83;0.65;;;7.30;99.90;;;;;;4964497;28;20026;-75